sensor_id;sensor_type;location;lat;lon;timestamp;temperature;humidity
27544;DHT22;17996;51.056;3.656;2023-02-03T00:00:46;10.40;99.90
27544;DHT22;17996;51.056;3.656;2023-02-03T00:03:12;10.50;99.90
27544;DHT22;17996;51.056;3.656;2023-02-03T00:05:38;10.40;99.90
27544;DHT22;17996;51.056;3.656;2023-02-03T00:08:05;10.40;99.90
27544;DHT22;17996;51.056;3.656;2023-02-03T00:10:33;10.40;99.90
27544;DHT22;17996;51.056;3.656;2023-02-03T00:12:59;10.40;99.90
27544;DHT22;17996;51.056;3.656;2023-02-03T00:15:25;10.40;99.90
27544;DHT22;17996;51.056;3.656;2023-02-03T00:17:52;10.40;99.90
27544;DHT22;17996;51.056;3.656;2023-02-03T00:20:17;10.40;99.90
27544;DHT22;17996;51.056;3.656;2023-02-03T00:22:43;10.40;99.90
27544;DHT22;17996;51.056;3.656;2023-02-03T00:25:09;10.40;99.90
27544;DHT22;17996;51.056;3.656;2023-02-03T00:27:34;10.40;99.90
27544;DHT22;17996;51.056;3.656;2023-02-03T00:30:00;10.40;99.90
27544;DHT22;17996;51.056;3.656;2023-02-03T00:32:26;10.50;99.90
27544;DHT22;17996;51.056;3.656;2023-02-03T00:34:51;10.50;99.90
27544;DHT22;17996;51.056;3.656;2023-02-03T00:37:17;10.50;99.90
27544;DHT22;17996;51.056;3.656;2023-02-03T00:39:43;10.50;99.90
27544;DHT22;17996;51.056;3.656;2023-02-03T00:42:08;10.50;99.90
27544;DHT22;17996;51.056;3.656;2023-02-03T00:44:34;10.50;99.90
27544;DHT22;17996;51.056;3.656;2023-02-03T00:47:00;10.70;99.90
27544;DHT22;17996;51.056;3.656;2023-02-03T00:49:25;10.60;99.90
27544;DHT22;17996;51.056;3.656;2023-02-03T00:51:51;10.50;99.90
27544;DHT22;17996;51.056;3.656;2023-02-03T00:54:17;10.50;99.90
27544;DHT22;17996;51.056;3.656;2023-02-03T00:56:43;10.50;99.90
27544;DHT22;17996;51.056;3.656;2023-02-03T00:59:09;10.50;99.90
27544;DHT22;17996;51.056;3.656;2023-02-03T01:01:35;10.50;99.90
27544;DHT22;17996;51.056;3.656;2023-02-03T01:04:01;10.60;99.90
27544;DHT22;17996;51.056;3.656;2023-02-03T01:06:27;10.70;99.90
27544;DHT22;17996;51.056;3.656;2023-02-03T01:08:54;10.60;99.90
27544;DHT22;17996;51.056;3.656;2023-02-03T01:11:24;10.60;99.90
27544;DHT22;17996;51.056;3.656;2023-02-03T01:13:53;10.60;99.90
27544;DHT22;17996;51.056;3.656;2023-02-03T01:16:21;10.60;99.90
27544;DHT22;17996;51.056;3.656;2023-02-03T01:18:47;10.70;99.90
27544;DHT22;17996;51.056;3.656;2023-02-03T01:21:16;10.70;99.90
27544;DHT22;17996;51.056;3.656;2023-02-03T01:23:42;10.60;99.90
27544;DHT22;17996;51.056;3.656;2023-02-03T01:26:11;10.60;99.90
27544;DHT22;17996;51.056;3.656;2023-02-03T01:28:38;10.60;99.90
27544;DHT22;17996;51.056;3.656;2023-02-03T01:31:15;10.60;99.90
27544;DHT22;17996;51.056;3.656;2023-02-03T01:33:42;10.60;99.90
27544;DHT22;17996;51.056;3.656;2023-02-03T01:36:11;10.60;99.90
27544;DHT22;17996;51.056;3.656;2023-02-03T01:38:37;10.60;99.90
27544;DHT22;17996;51.056;3.656;2023-02-03T01:41:05;10.60;99.90
27544;DHT22;17996;51.056;3.656;2023-02-03T01:43:34;10.60;99.90
27544;DHT22;17996;51.056;3.656;2023-02-03T01:48:46;10.60;99.90
27544;DHT22;17996;51.056;3.656;2023-02-03T01:51:12;10.60;99.90
27544;DHT22;17996;51.056;3.656;2023-02-03T01:53:38;10.60;99.90
27544;DHT22;17996;51.056;3.656;2023-02-03T01:56:05;10.70;99.90
27544;DHT22;17996;51.056;3.656;2023-02-03T01:58:33;10.60;99.90
27544;DHT22;17996;51.056;3.656;2023-02-03T02:01:01;10.60;99.90
27544;DHT22;17996;51.056;3.656;2023-02-03T02:03:41;10.60;99.90
27544;DHT22;17996;51.056;3.656;2023-02-03T02:06:09;10.60;99.90
27544;DHT22;17996;51.056;3.656;2023-02-03T02:08:37;10.60;99.90
27544;DHT22;17996;51.056;3.656;2023-02-03T02:11:05;10.50;99.90
27544;DHT22;17996;51.056;3.656;2023-02-03T02:13:34;10.50;99.90
27544;DHT22;17996;51.056;3.656;2023-02-03T02:25:10;10.60;99.90
27544;DHT22;17996;51.056;3.656;2023-02-03T02:36:30;10.60;99.90
27544;DHT22;17996;51.056;3.656;2023-02-03T02:41:55;10.50;99.90
27544;DHT22;17996;51.056;3.656;2023-02-03T02:44:27;10.50;99.90
27544;DHT22;17996;51.056;3.656;2023-02-03T02:47:01;10.50;99.90
27544;DHT22;17996;51.056;3.656;2023-02-03T02:49:31;10.50;99.90
27544;DHT22;17996;51.056;3.656;2023-02-03T02:52:00;10.50;99.90
27544;DHT22;17996;51.056;3.656;2023-02-03T02:54:28;10.50;99.90
27544;DHT22;17996;51.056;3.656;2023-02-03T02:56:58;10.50;99.90
27544;DHT22;17996;51.056;3.656;2023-02-03T02:59:24;10.50;99.90
27544;DHT22;17996;51.056;3.656;2023-02-03T03:01:50;10.50;99.90
27544;DHT22;17996;51.056;3.656;2023-02-03T03:04:23;10.70;99.90
27544;DHT22;17996;51.056;3.656;2023-02-03T03:07:00;10.60;99.90
27544;DHT22;17996;51.056;3.656;2023-02-03T03:09:42;10.60;99.90
27544;DHT22;17996;51.056;3.656;2023-02-03T03:12:23;10.60;99.90
27544;DHT22;17996;51.056;3.656;2023-02-03T03:14:55;10.60;99.90
27544;DHT22;17996;51.056;3.656;2023-02-03T03:17:32;10.50;99.90
27544;DHT22;17996;51.056;3.656;2023-02-03T03:20:03;10.70;99.90
27544;DHT22;17996;51.056;3.656;2023-02-03T03:22:34;10.50;99.90
27544;DHT22;17996;51.056;3.656;2023-02-03T03:25:17;10.50;99.90
27544;DHT22;17996;51.056;3.656;2023-02-03T03:27:48;10.50;99.90
27544;DHT22;17996;51.056;3.656;2023-02-03T03:30:33;10.50;99.90
27544;DHT22;17996;51.056;3.656;2023-02-03T03:33:01;10.50;99.90
27544;DHT22;17996;51.056;3.656;2023-02-03T03:35:53;10.50;99.90
27544;DHT22;17996;51.056;3.656;2023-02-03T03:38:23;10.50;99.90
27544;DHT22;17996;51.056;3.656;2023-02-03T03:41:11;10.40;99.90
27544;DHT22;17996;51.056;3.656;2023-02-03T03:43:42;10.50;99.90
27544;DHT22;17996;51.056;3.656;2023-02-03T03:46:14;10.50;99.90
27544;DHT22;17996;51.056;3.656;2023-02-03T03:48:53;10.50;99.90
27544;DHT22;17996;51.056;3.656;2023-02-03T03:51:31;10.50;99.90
27544;DHT22;17996;51.056;3.656;2023-02-03T03:54:03;10.50;99.90
27544;DHT22;17996;51.056;3.656;2023-02-03T03:56:40;10.50;99.90
27544;DHT22;17996;51.056;3.656;2023-02-03T03:59:10;10.60;99.90
27544;DHT22;17996;51.056;3.656;2023-02-03T04:01:38;10.60;99.90
27544;DHT22;17996;51.056;3.656;2023-02-03T04:04:08;10.50;99.90
27544;DHT22;17996;51.056;3.656;2023-02-03T04:06:35;10.50;99.90
27544;DHT22;17996;51.056;3.656;2023-02-03T04:09:00;10.50;99.90
27544;DHT22;17996;51.056;3.656;2023-02-03T04:11:27;10.50;99.90
27544;DHT22;17996;51.056;3.656;2023-02-03T04:14:11;10.50;99.90
27544;DHT22;17996;51.056;3.656;2023-02-03T04:16:37;10.50;99.90
27544;DHT22;17996;51.056;3.656;2023-02-03T04:19:02;10.50;99.90
27544;DHT22;17996;51.056;3.656;2023-02-03T04:21:28;10.60;99.90
27544;DHT22;17996;51.056;3.656;2023-02-03T04:23:54;10.50;99.90
27544;DHT22;17996;51.056;3.656;2023-02-03T04:26:21;10.50;99.90
27544;DHT22;17996;51.056;3.656;2023-02-03T04:28:46;10.50;99.90
27544;DHT22;17996;51.056;3.656;2023-02-03T04:31:12;10.50;99.90
27544;DHT22;17996;51.056;3.656;2023-02-03T04:33:38;10.50;99.90
27544;DHT22;17996;51.056;3.656;2023-02-03T04:36:04;10.70;99.90
27544;DHT22;17996;51.056;3.656;2023-02-03T04:38:29;10.50;99.90
27544;DHT22;17996;51.056;3.656;2023-02-03T04:40:55;10.40;99.90
27544;DHT22;17996;51.056;3.656;2023-02-03T04:43:21;10.50;99.90
27544;DHT22;17996;51.056;3.656;2023-02-03T04:45:46;10.60;99.90
27544;DHT22;17996;51.056;3.656;2023-02-03T04:48:12;10.70;99.90
27544;DHT22;17996;51.056;3.656;2023-02-03T04:50:37;10.60;99.90
27544;DHT22;17996;51.056;3.656;2023-02-03T04:53:03;10.60;99.90
27544;DHT22;17996;51.056;3.656;2023-02-03T04:55:29;10.60;99.90
27544;DHT22;17996;51.056;3.656;2023-02-03T04:57:55;10.50;99.90
27544;DHT22;17996;51.056;3.656;2023-02-03T05:00:21;10.50;99.90
27544;DHT22;17996;51.056;3.656;2023-02-03T05:02:47;10.50;99.90
27544;DHT22;17996;51.056;3.656;2023-02-03T05:05:12;10.50;99.90
27544;DHT22;17996;51.056;3.656;2023-02-03T05:07:38;10.50;99.90
27544;DHT22;17996;51.056;3.656;2023-02-03T05:10:04;10.50;99.90
27544;DHT22;17996;51.056;3.656;2023-02-03T05:12:30;10.60;99.90
27544;DHT22;17996;51.056;3.656;2023-02-03T05:14:55;10.60;99.90
27544;DHT22;17996;51.056;3.656;2023-02-03T05:17:21;10.60;99.90
27544;DHT22;17996;51.056;3.656;2023-02-03T05:19:46;10.80;99.90
27544;DHT22;17996;51.056;3.656;2023-02-03T05:22:12;10.60;99.90
27544;DHT22;17996;51.056;3.656;2023-02-03T05:24:38;10.60;99.90
27544;DHT22;17996;51.056;3.656;2023-02-03T05:27:03;10.50;99.90
27544;DHT22;17996;51.056;3.656;2023-02-03T05:29:29;10.70;99.90
27544;DHT22;17996;51.056;3.656;2023-02-03T05:31:55;10.60;99.90
27544;DHT22;17996;51.056;3.656;2023-02-03T05:34:20;10.60;99.90
27544;DHT22;17996;51.056;3.656;2023-02-03T05:36:46;10.60;99.90
27544;DHT22;17996;51.056;3.656;2023-02-03T05:39:11;10.60;99.90
27544;DHT22;17996;51.056;3.656;2023-02-03T05:41:37;10.70;99.90
27544;DHT22;17996;51.056;3.656;2023-02-03T05:44:26;10.70;99.90
27544;DHT22;17996;51.056;3.656;2023-02-03T05:46:54;10.70;99.90
27544;DHT22;17996;51.056;3.656;2023-02-03T05:49:20;10.80;99.90
27544;DHT22;17996;51.056;3.656;2023-02-03T05:51:48;10.90;99.90
27544;DHT22;17996;51.056;3.656;2023-02-03T05:54:14;10.80;99.90
27544;DHT22;17996;51.056;3.656;2023-02-03T05:56:39;10.80;99.90
27544;DHT22;17996;51.056;3.656;2023-02-03T05:59:06;10.70;99.90
27544;DHT22;17996;51.056;3.656;2023-02-03T06:01:32;10.60;99.90
27544;DHT22;17996;51.056;3.656;2023-02-03T06:03:59;10.70;99.90
27544;DHT22;17996;51.056;3.656;2023-02-03T06:06:25;10.80;99.90
27544;DHT22;17996;51.056;3.656;2023-02-03T06:08:51;10.70;99.90
27544;DHT22;17996;51.056;3.656;2023-02-03T06:11:20;10.70;99.90
27544;DHT22;17996;51.056;3.656;2023-02-03T06:13:48;10.70;99.90
27544;DHT22;17996;51.056;3.656;2023-02-03T06:16:14;10.60;99.90
27544;DHT22;17996;51.056;3.656;2023-02-03T06:18:40;10.60;99.90
27544;DHT22;17996;51.056;3.656;2023-02-03T06:21:06;10.60;99.90
27544;DHT22;17996;51.056;3.656;2023-02-03T06:23:32;10.60;99.90
27544;DHT22;17996;51.056;3.656;2023-02-03T06:25:57;10.60;99.90
27544;DHT22;17996;51.056;3.656;2023-02-03T06:28:25;10.60;99.90
27544;DHT22;17996;51.056;3.656;2023-02-03T06:30:51;10.60;99.90
27544;DHT22;17996;51.056;3.656;2023-02-03T06:33:20;10.50;99.90
27544;DHT22;17996;51.056;3.656;2023-02-03T06:35:46;10.70;99.90
27544;DHT22;17996;51.056;3.656;2023-02-03T06:38:12;10.60;99.90
27544;DHT22;17996;51.056;3.656;2023-02-03T06:40:38;10.60;99.90
27544;DHT22;17996;51.056;3.656;2023-02-03T06:43:03;10.60;99.90
27544;DHT22;17996;51.056;3.656;2023-02-03T06:45:29;10.60;99.90
27544;DHT22;17996;51.056;3.656;2023-02-03T06:47:55;10.60;99.90
27544;DHT22;17996;51.056;3.656;2023-02-03T06:50:20;10.60;99.90
27544;DHT22;17996;51.056;3.656;2023-02-03T06:52:48;10.70;99.90
27544;DHT22;17996;51.056;3.656;2023-02-03T06:55:14;10.90;99.90
27544;DHT22;17996;51.056;3.656;2023-02-03T06:57:44;10.70;99.90
27544;DHT22;17996;51.056;3.656;2023-02-03T07:00:11;10.60;99.90
27544;DHT22;17996;51.056;3.656;2023-02-03T07:02:38;10.60;99.90
27544;DHT22;17996;51.056;3.656;2023-02-03T07:05:04;10.70;99.90
27544;DHT22;17996;51.056;3.656;2023-02-03T07:07:30;10.50;99.90
27544;DHT22;17996;51.056;3.656;2023-02-03T07:09:57;10.50;99.90
27544;DHT22;17996;51.056;3.656;2023-02-03T07:12:23;10.50;99.90
27544;DHT22;17996;51.056;3.656;2023-02-03T07:14:48;10.50;99.90
27544;DHT22;17996;51.056;3.656;2023-02-03T07:17:14;10.60;99.90
27544;DHT22;17996;51.056;3.656;2023-02-03T07:19:39;10.40;99.90
27544;DHT22;17996;51.056;3.656;2023-02-03T07:22:05;10.40;99.90
27544;DHT22;17996;51.056;3.656;2023-02-03T07:24:31;10.30;99.90
27544;DHT22;17996;51.056;3.656;2023-02-03T07:26:56;10.40;99.90
27544;DHT22;17996;51.056;3.656;2023-02-03T07:29:22;10.50;99.90
27544;DHT22;17996;51.056;3.656;2023-02-03T07:31:47;10.40;99.90
27544;DHT22;17996;51.056;3.656;2023-02-03T07:34:13;10.40;99.90
27544;DHT22;17996;51.056;3.656;2023-02-03T07:36:39;10.40;99.90
27544;DHT22;17996;51.056;3.656;2023-02-03T07:39:05;10.30;99.90
27544;DHT22;17996;51.056;3.656;2023-02-03T07:41:31;10.30;99.90
27544;DHT22;17996;51.056;3.656;2023-02-03T07:43:57;10.40;99.90
27544;DHT22;17996;51.056;3.656;2023-02-03T07:46:22;10.40;99.90
27544;DHT22;17996;51.056;3.656;2023-02-03T07:48:48;10.50;99.90
27544;DHT22;17996;51.056;3.656;2023-02-03T07:51:14;10.50;99.90
27544;DHT22;17996;51.056;3.656;2023-02-03T07:53:39;10.40;99.90
27544;DHT22;17996;51.056;3.656;2023-02-03T07:56:05;10.30;99.90
27544;DHT22;17996;51.056;3.656;2023-02-03T07:58:31;10.30;99.90
27544;DHT22;17996;51.056;3.656;2023-02-03T08:00:58;10.30;99.90
27544;DHT22;17996;51.056;3.656;2023-02-03T08:03:24;10.30;99.90
27544;DHT22;17996;51.056;3.656;2023-02-03T08:05:50;10.30;99.90
27544;DHT22;17996;51.056;3.656;2023-02-03T08:08:16;10.30;99.90
27544;DHT22;17996;51.056;3.656;2023-02-03T08:10:42;10.50;99.90
27544;DHT22;17996;51.056;3.656;2023-02-03T08:13:07;10.40;99.90
27544;DHT22;17996;51.056;3.656;2023-02-03T08:15:33;10.40;99.90
27544;DHT22;17996;51.056;3.656;2023-02-03T08:17:59;10.50;99.90
27544;DHT22;17996;51.056;3.656;2023-02-03T08:20:25;10.50;99.90
27544;DHT22;17996;51.056;3.656;2023-02-03T08:22:51;10.60;99.90
27544;DHT22;17996;51.056;3.656;2023-02-03T08:25:17;10.60;99.90
27544;DHT22;17996;51.056;3.656;2023-02-03T08:27:43;10.60;99.90
27544;DHT22;17996;51.056;3.656;2023-02-03T08:30:11;10.60;99.90
27544;DHT22;17996;51.056;3.656;2023-02-03T08:32:37;10.50;99.90
27544;DHT22;17996;51.056;3.656;2023-02-03T08:35:03;10.60;99.90
27544;DHT22;17996;51.056;3.656;2023-02-03T08:37:29;10.70;99.90
27544;DHT22;17996;51.056;3.656;2023-02-03T08:39:57;10.70;99.90
27544;DHT22;17996;51.056;3.656;2023-02-03T08:42:23;10.80;99.90
27544;DHT22;17996;51.056;3.656;2023-02-03T08:44:48;10.80;99.90
27544;DHT22;17996;51.056;3.656;2023-02-03T08:47:14;10.90;99.90
27544;DHT22;17996;51.056;3.656;2023-02-03T08:49:40;11.00;99.90
27544;DHT22;17996;51.056;3.656;2023-02-03T08:52:09;10.90;99.90
27544;DHT22;17996;51.056;3.656;2023-02-03T08:54:35;11.00;99.90
27544;DHT22;17996;51.056;3.656;2023-02-03T08:57:01;11.00;99.90
27544;DHT22;17996;51.056;3.656;2023-02-03T08:59:27;11.10;99.90
27544;DHT22;17996;51.056;3.656;2023-02-03T09:01:53;11.10;99.90
27544;DHT22;17996;51.056;3.656;2023-02-03T09:04:19;11.00;99.90
27544;DHT22;17996;51.056;3.656;2023-02-03T09:06:53;11.10;99.90
27544;DHT22;17996;51.056;3.656;2023-02-03T09:09:22;11.00;99.90
27544;DHT22;17996;51.056;3.656;2023-02-03T09:11:48;11.00;99.90
27544;DHT22;17996;51.056;3.656;2023-02-03T09:14:14;10.90;99.90
27544;DHT22;17996;51.056;3.656;2023-02-03T09:16:39;11.00;99.90
27544;DHT22;17996;51.056;3.656;2023-02-03T09:19:05;11.00;99.90
27544;DHT22;17996;51.056;3.656;2023-02-03T09:21:32;10.90;99.90
27544;DHT22;17996;51.056;3.656;2023-02-03T09:24:02;11.10;99.90
27544;DHT22;17996;51.056;3.656;2023-02-03T09:26:27;11.00;99.90
27544;DHT22;17996;51.056;3.656;2023-02-03T09:28:53;11.20;99.90
27544;DHT22;17996;51.056;3.656;2023-02-03T09:31:19;11.20;99.90
27544;DHT22;17996;51.056;3.656;2023-02-03T09:33:45;11.30;99.90
27544;DHT22;17996;51.056;3.656;2023-02-03T09:36:11;11.20;99.90
27544;DHT22;17996;51.056;3.656;2023-02-03T09:38:37;11.20;99.90
27544;DHT22;17996;51.056;3.656;2023-02-03T09:47:10;11.30;99.90
27544;DHT22;17996;51.056;3.656;2023-02-03T09:49:43;11.20;99.90
27544;DHT22;17996;51.056;3.656;2023-02-03T09:52:24;11.30;99.90
27544;DHT22;17996;51.056;3.656;2023-02-03T09:57:27;11.20;99.90
27544;DHT22;17996;51.056;3.656;2023-02-03T09:59:57;11.20;99.90
27544;DHT22;17996;51.056;3.656;2023-02-03T10:11:16;11.40;99.90
27544;DHT22;17996;51.056;3.656;2023-02-03T10:13:48;11.40;99.90
27544;DHT22;17996;51.056;3.656;2023-02-03T10:16:24;11.40;99.90
27544;DHT22;17996;51.056;3.656;2023-02-03T10:18:56;11.60;99.90
27544;DHT22;17996;51.056;3.656;2023-02-03T10:21:56;11.70;99.90
27544;DHT22;17996;51.056;3.656;2023-02-03T10:24:47;11.80;99.90
27544;DHT22;17996;51.056;3.656;2023-02-03T10:27:21;11.80;99.90
27544;DHT22;17996;51.056;3.656;2023-02-03T10:30:38;11.80;99.90
27544;DHT22;17996;51.056;3.656;2023-02-03T10:32:44;11.80;99.90
27544;DHT22;17996;51.056;3.656;2023-02-03T10:35:13;11.80;99.90
27544;DHT22;17996;51.056;3.656;2023-02-03T10:37:50;11.80;99.90
27544;DHT22;17996;51.056;3.656;2023-02-03T10:40:22;11.80;99.90
27544;DHT22;17996;51.056;3.656;2023-02-03T10:42:48;11.80;99.90
27544;DHT22;17996;51.056;3.656;2023-02-03T10:45:36;11.80;99.90
27544;DHT22;17996;51.056;3.656;2023-02-03T10:48:03;11.90;99.90
27544;DHT22;17996;51.056;3.656;2023-02-03T10:50:31;12.00;99.90
27544;DHT22;17996;51.056;3.656;2023-02-03T10:53:19;12.00;99.90
27544;DHT22;17996;51.056;3.656;2023-02-03T10:55:49;12.00;99.90
27544;DHT22;17996;51.056;3.656;2023-02-03T10:58:16;11.90;99.90
27544;DHT22;17996;51.056;3.656;2023-02-03T11:00:44;11.80;99.90
27544;DHT22;17996;51.056;3.656;2023-02-03T11:05:35;11.80;99.90
27544;DHT22;17996;51.056;3.656;2023-02-03T11:08:01;11.80;99.90
27544;DHT22;17996;51.056;3.656;2023-02-03T11:10:37;11.90;99.90
27544;DHT22;17996;51.056;3.656;2023-02-03T11:13:16;11.90;99.90
27544;DHT22;17996;51.056;3.656;2023-02-03T11:21:39;12.10;99.90
27544;DHT22;17996;51.056;3.656;2023-02-03T11:24:38;12.10;99.90
27544;DHT22;17996;51.056;3.656;2023-02-03T11:27:15;12.10;99.90
27544;DHT22;17996;51.056;3.656;2023-02-03T11:29:45;12.10;99.90
27544;DHT22;17996;51.056;3.656;2023-02-03T11:32:35;12.20;99.90
27544;DHT22;17996;51.056;3.656;2023-02-03T11:35:28;12.20;99.90
27544;DHT22;17996;51.056;3.656;2023-02-03T11:37:58;12.20;99.90
27544;DHT22;17996;51.056;3.656;2023-02-03T11:45:35;12.20;99.90
27544;DHT22;17996;51.056;3.656;2023-02-03T11:53:57;12.20;99.90
27544;DHT22;17996;51.056;3.656;2023-02-03T12:02:53;12.30;99.90
27544;DHT22;17996;51.056;3.656;2023-02-03T12:11:31;12.50;99.90
27544;DHT22;17996;51.056;3.656;2023-02-03T12:28:05;12.80;99.90
27544;DHT22;17996;51.056;3.656;2023-02-03T12:30:48;12.80;99.90
27544;DHT22;17996;51.056;3.656;2023-02-03T12:33:26;12.80;99.90
27544;DHT22;17996;51.056;3.656;2023-02-03T12:36:17;12.80;99.90
27544;DHT22;17996;51.056;3.656;2023-02-03T12:41:43;12.90;99.90
27544;DHT22;17996;51.056;3.656;2023-02-03T12:44:22;12.90;99.90
27544;DHT22;17996;51.056;3.656;2023-02-03T12:47:05;12.80;99.90
27544;DHT22;17996;51.056;3.656;2023-02-03T12:49:56;12.80;99.90
27544;DHT22;17996;51.056;3.656;2023-02-03T12:58:11;12.70;99.90
27544;DHT22;17996;51.056;3.656;2023-02-03T13:08:35;12.80;99.90
27544;DHT22;17996;51.056;3.656;2023-02-03T13:11:21;12.80;99.90
27544;DHT22;17996;51.056;3.656;2023-02-03T13:14:19;12.80;99.90
27544;DHT22;17996;51.056;3.656;2023-02-03T13:16:47;12.80;99.90
27544;DHT22;17996;51.056;3.656;2023-02-03T13:19:20;12.80;99.90
27544;DHT22;17996;51.056;3.656;2023-02-03T13:21:49;12.90;99.90
27544;DHT22;17996;51.056;3.656;2023-02-03T13:24:16;12.90;99.90
27544;DHT22;17996;51.056;3.656;2023-02-03T13:43:34;12.90;99.90
27544;DHT22;17996;51.056;3.656;2023-02-03T13:46:01;12.90;99.90
27544;DHT22;17996;51.056;3.656;2023-02-03T13:48:32;13.00;99.90
27544;DHT22;17996;51.056;3.656;2023-02-03T13:51:24;13.00;99.90
27544;DHT22;17996;51.056;3.656;2023-02-03T13:54:03;13.00;99.90
27544;DHT22;17996;51.056;3.656;2023-02-03T13:56:30;13.00;99.90
27544;DHT22;17996;51.056;3.656;2023-02-03T14:01:41;13.00;99.90
27544;DHT22;17996;51.056;3.656;2023-02-03T14:09:44;12.90;99.90
27544;DHT22;17996;51.056;3.656;2023-02-03T14:14:55;12.80;99.90
27544;DHT22;17996;51.056;3.656;2023-02-03T14:20:02;12.80;99.90
27544;DHT22;17996;51.056;3.656;2023-02-03T14:22:28;12.80;99.90
27544;DHT22;17996;51.056;3.656;2023-02-03T14:24:57;12.80;99.90
27544;DHT22;17996;51.056;3.656;2023-02-03T14:27:29;12.70;99.90
27544;DHT22;17996;51.056;3.656;2023-02-03T14:30:07;12.70;99.90
27544;DHT22;17996;51.056;3.656;2023-02-03T14:32:53;12.80;99.90
27544;DHT22;17996;51.056;3.656;2023-02-03T14:35:34;12.70;99.90
27544;DHT22;17996;51.056;3.656;2023-02-03T14:38:05;12.80;99.90
27544;DHT22;17996;51.056;3.656;2023-02-03T14:40:54;12.80;99.90
27544;DHT22;17996;51.056;3.656;2023-02-03T14:43:32;12.70;99.90
27544;DHT22;17996;51.056;3.656;2023-02-03T14:59:58;12.70;99.90
27544;DHT22;17996;51.056;3.656;2023-02-03T15:02:28;12.80;99.90
27544;DHT22;17996;51.056;3.656;2023-02-03T15:10:25;12.60;99.90
27544;DHT22;17996;51.056;3.656;2023-02-03T15:12:55;12.60;99.90
27544;DHT22;17996;51.056;3.656;2023-02-03T15:15:27;12.60;99.90
27544;DHT22;17996;51.056;3.656;2023-02-03T15:17:56;12.60;99.90
27544;DHT22;17996;51.056;3.656;2023-02-03T15:22:56;12.60;99.90
27544;DHT22;17996;51.056;3.656;2023-02-03T15:25:23;12.60;99.90
27544;DHT22;17996;51.056;3.656;2023-02-03T15:27:50;12.60;99.90
27544;DHT22;17996;51.056;3.656;2023-02-03T15:30:23;12.50;99.90
27544;DHT22;17996;51.056;3.656;2023-02-03T15:32:58;12.50;99.90
27544;DHT22;17996;51.056;3.656;2023-02-03T15:35:29;12.50;99.90
27544;DHT22;17996;51.056;3.656;2023-02-03T15:38:03;12.50;99.90
27544;DHT22;17996;51.056;3.656;2023-02-03T15:40:41;12.50;99.90
27544;DHT22;17996;51.056;3.656;2023-02-03T15:43:30;12.50;99.90
27544;DHT22;17996;51.056;3.656;2023-02-03T15:46:16;12.40;99.90
27544;DHT22;17996;51.056;3.656;2023-02-03T15:48:54;12.30;99.90
27544;DHT22;17996;51.056;3.656;2023-02-03T15:53:57;12.30;99.90
27544;DHT22;17996;51.056;3.656;2023-02-03T15:56:34;12.20;99.90
27544;DHT22;17996;51.056;3.656;2023-02-03T15:59:04;12.10;99.90
27544;DHT22;17996;51.056;3.656;2023-02-03T16:01:31;12.10;99.90
27544;DHT22;17996;51.056;3.656;2023-02-03T16:03:58;12.20;99.90
27544;DHT22;17996;51.056;3.656;2023-02-03T16:06:33;12.10;99.90
27544;DHT22;17996;51.056;3.656;2023-02-03T16:09:05;12.10;99.90
27544;DHT22;17996;51.056;3.656;2023-02-03T16:11:34;12.00;99.90
27544;DHT22;17996;51.056;3.656;2023-02-03T16:14:02;12.00;99.90
27544;DHT22;17996;51.056;3.656;2023-02-03T16:16:40;12.00;99.90
27544;DHT22;17996;51.056;3.656;2023-02-03T16:19:15;11.90;99.90
27544;DHT22;17996;51.056;3.656;2023-02-03T16:24:36;11.90;99.90
27544;DHT22;17996;51.056;3.656;2023-02-03T16:29:46;11.90;99.90
27544;DHT22;17996;51.056;3.656;2023-02-03T16:32:31;11.90;99.90
27544;DHT22;17996;51.056;3.656;2023-02-03T16:35:15;11.90;99.90
27544;DHT22;17996;51.056;3.656;2023-02-03T16:38:16;11.90;99.90
27544;DHT22;17996;51.056;3.656;2023-02-03T16:41:01;12.00;99.90
27544;DHT22;17996;51.056;3.656;2023-02-03T16:43:47;11.90;99.90
27544;DHT22;17996;51.056;3.656;2023-02-03T16:46:31;11.90;99.90
27544;DHT22;17996;51.056;3.656;2023-02-03T16:49:15;11.90;99.90
27544;DHT22;17996;51.056;3.656;2023-02-03T16:51:59;11.80;99.90
27544;DHT22;17996;51.056;3.656;2023-02-03T16:54:26;11.80;99.90
27544;DHT22;17996;51.056;3.656;2023-02-03T16:56:52;11.80;99.90
27544;DHT22;17996;51.056;3.656;2023-02-03T16:59:18;11.80;99.90
27544;DHT22;17996;51.056;3.656;2023-02-03T17:01:44;11.80;99.90
27544;DHT22;17996;51.056;3.656;2023-02-03T17:04:10;11.80;99.90
27544;DHT22;17996;51.056;3.656;2023-02-03T17:06:39;11.70;99.90
27544;DHT22;17996;51.056;3.656;2023-02-03T17:09:06;11.70;99.90
27544;DHT22;17996;51.056;3.656;2023-02-03T17:11:32;11.70;99.90
27544;DHT22;17996;51.056;3.656;2023-02-03T17:13:57;11.80;99.90
27544;DHT22;17996;51.056;3.656;2023-02-03T17:16:25;11.80;99.90
27544;DHT22;17996;51.056;3.656;2023-02-03T17:18:51;11.80;99.90
27544;DHT22;17996;51.056;3.656;2023-02-03T17:21:23;11.80;99.90
27544;DHT22;17996;51.056;3.656;2023-02-03T17:23:49;11.80;99.90
27544;DHT22;17996;51.056;3.656;2023-02-03T17:26:15;11.90;99.90
27544;DHT22;17996;51.056;3.656;2023-02-03T17:28:41;11.90;99.90
27544;DHT22;17996;51.056;3.656;2023-02-03T17:31:12;11.80;99.90
27544;DHT22;17996;51.056;3.656;2023-02-03T17:33:37;11.90;99.90
27544;DHT22;17996;51.056;3.656;2023-02-03T17:36:05;11.80;99.90
27544;DHT22;17996;51.056;3.656;2023-02-03T17:38:42;11.80;99.90
27544;DHT22;17996;51.056;3.656;2023-02-03T17:41:16;11.90;99.90
27544;DHT22;17996;51.056;3.656;2023-02-03T17:43:42;11.90;99.90
27544;DHT22;17996;51.056;3.656;2023-02-03T17:46:09;11.80;99.90
27544;DHT22;17996;51.056;3.656;2023-02-03T17:48:36;11.90;99.90
27544;DHT22;17996;51.056;3.656;2023-02-03T17:51:10;11.90;99.90
27544;DHT22;17996;51.056;3.656;2023-02-03T17:53:38;11.90;99.90
27544;DHT22;17996;51.056;3.656;2023-02-03T17:56:09;11.80;99.90
27544;DHT22;17996;51.056;3.656;2023-02-03T17:58:36;11.80;99.90
27544;DHT22;17996;51.056;3.656;2023-02-03T18:01:28;11.80;99.90
27544;DHT22;17996;51.056;3.656;2023-02-03T18:03:59;11.80;99.90
27544;DHT22;17996;51.056;3.656;2023-02-03T18:06:27;11.80;99.90
27544;DHT22;17996;51.056;3.656;2023-02-03T18:08:53;11.80;99.90
27544;DHT22;17996;51.056;3.656;2023-02-03T18:11:19;11.80;99.90
27544;DHT22;17996;51.056;3.656;2023-02-03T18:13:47;11.80;99.90
27544;DHT22;17996;51.056;3.656;2023-02-03T18:16:16;11.80;99.90
27544;DHT22;17996;51.056;3.656;2023-02-03T18:18:43;11.80;99.90
27544;DHT22;17996;51.056;3.656;2023-02-03T18:21:11;11.80;99.90
27544;DHT22;17996;51.056;3.656;2023-02-03T18:23:37;11.70;99.90
27544;DHT22;17996;51.056;3.656;2023-02-03T18:26:05;11.70;99.90
27544;DHT22;17996;51.056;3.656;2023-02-03T18:28:31;11.70;99.90
27544;DHT22;17996;51.056;3.656;2023-02-03T18:31:02;11.70;99.90